Time;durP1;ratioP1;P1;durP2;ratioP2;P2;SDS_P1;SDS_P2;PMS_P1;PMS_P2;Temp;Humidity;BMP_temperature;BMP_pressure;BME280_temperature;BME280_humidity;BME280_pressure;Samples;Min_cycle;Max_cycle;Signal;HPM_P1;HPM_P2
2022/12/02 00:04:44;;;;;;;54.67;34.28;;;;;;;2.59;100.00;102319.91;10433722;28;20427;-85
2022/12/02 00:09:44;;;;;;;66.55;36.00;;;;;;;2.60;100.00;102320.84;10440273;28;20029;-85
2022/12/02 00:14:45;;;;;;;63.83;36.10;;;;;;;2.56;100.00;102317.00;10442137;28;20543;-86
2022/12/02 00:19:45;;;;;;;58.30;33.28;;;;;;;2.50;100.00;102321.53;10446963;28;20473;-86
2022/12/02 00:24:46;;;;;;;62.45;36.00;;;;;;;2.44;100.00;102314.09;10470535;28;20036;-84
2022/12/02 00:29:46;;;;;;;63.47;35.67;;;;;;;2.25;100.00;102308.66;10441772;28;20060;-86
2022/12/02 00:34:47;;;;;;;57.70;37.67;;;;;;;2.28;100.00;102298.63;10448562;28;20068;-85
2022/12/02 00:39:47;;;;;;;57.90;35.58;;;;;;;2.26;100.00;102299.25;10469997;28;20037;-85
2022/12/02 00:50:07;;;;;;;62.00;34.72;;;;;;;2.17;100.00;102297.53;10467204;28;20033;-85
2022/12/02 00:55:08;;;;;;;73.47;40.20;;;;;;;2.19;100.00;102283.13;10441621;28;20040;-85
2022/12/02 01:00:09;;;;;;;54.30;31.70;;;;;;;2.14;100.00;102292.06;10453942;28;20072;-84
2022/12/02 01:05:10;;;;;;;67.77;38.47;;;;;;;2.20;100.00;102282.34;10483907;28;20094;-85
2022/12/02 01:10:10;;;;;;;69.47;43.13;;;;;;;2.11;100.00;102268.47;10468660;28;20091;-85
2022/12/02 01:15:11;;;;;;;59.45;35.33;;;;;;;2.14;100.00;102273.03;10440852;28;20492;-85
2022/12/02 01:20:12;;;;;;;69.70;38.05;;;;;;;2.12;100.00;102270.31;10434403;28;20123;-85
2022/12/02 01:25:12;;;;;;;66.22;35.63;;;;;;;2.14;100.00;102270.47;10498223;28;20032;-84
2022/12/02 01:30:13;;;;;;;66.50;38.47;;;;;;;2.20;100.00;102271.09;10470936;28;20041;-85
2022/12/02 01:35:14;;;;;;;68.25;36.15;;;;;;;2.26;100.00;102273.41;10423069;28;20116;-85
2022/12/02 01:40:16;;;;;;;67.07;36.67;;;;;;;2.35;100.00;102279.53;10435186;28;20040;-85
2022/12/02 01:45:17;;;;;;;;;;;;;;;2.31;100.00;102273.13;10481922;28;20044;-85
2022/12/02 01:50:17;;;;;;;62.17;37.83;;;;;;;2.27;100.00;102273.56;10468201;28;20613;-85
2022/12/02 01:55:19;;;;;;;61.28;39.22;;;;;;;2.12;100.00;102259.97;10423827;28;20037;-85
2022/12/02 02:00:20;;;;;;;59.97;37.20;;;;;;;2.19;100.00;102254.69;10420925;28;20102;-84
2022/12/02 02:05:26;;;;;;;69.82;40.47;;;;;;;2.02;100.00;102247.75;10421985;28;20098;-84
2022/12/02 02:10:26;;;;;;;66.07;37.47;;;;;;;2.12;100.00;102244.47;10439209;28;20043;-85
2022/12/02 02:15:27;;;;;;;65.82;40.30;;;;;;;2.01;100.00;102250.19;10425868;28;20413;-85
2022/12/02 02:20:28;;;;;;;67.55;36.45;;;;;;;1.98;100.00;102245.59;10429634;28;20044;-85
2022/12/02 02:25:28;;;;;;;71.15;40.83;;;;;;;2.09;100.00;102259.66;10446306;28;20048;-84
2022/12/02 02:30:30;;;;;;;67.78;36.67;;;;;;;2.13;100.00;102256.66;10430076;28;20105;-84
2022/12/02 02:35:32;;;;;;;73.07;36.20;;;;;;;2.10;100.00;102246.00;10444444;28;20393;-85
2022/12/02 02:40:32;;;;;;;69.35;37.28;;;;;;;1.95;100.00;102252.13;10459376;28;20041;-85
2022/12/02 02:45:34;;;;;;;62.53;37.58;;;;;;;1.88;100.00;102248.91;10471354;28;20392;-86
2022/12/02 02:50:35;;;;;;;74.93;41.60;;;;;;;1.84;100.00;102241.59;10484347;28;20488;-85
2022/12/02 02:55:36;;;;;;;63.83;35.78;;;;;;;1.78;100.00;102240.03;10486971;28;20090;-85
2022/12/02 03:00:36;;;;;;;66.60;40.30;;;;;;;1.77;100.00;102228.81;10485440;28;20123;-85
2022/12/02 03:05:37;;;;;;;62.17;38.75;;;;;;;1.78;100.00;102227.13;10486756;28;20131;-84
2022/12/02 03:10:38;;;;;;;60.63;34.45;;;;;;;1.80;100.00;102233.34;10468776;28;20468;-84
2022/12/02 03:15:39;;;;;;;55.17;34.00;;;;;;;1.82;100.00;102224.09;10427438;28;20045;-84
2022/12/02 03:20:39;;;;;;;62.35;34.80;;;;;;;1.81;100.00;102219.69;10446466;28;20137;-83
2022/12/02 03:25:40;;;;;;;60.17;33.75;;;;;;;1.70;100.00;102214.31;10485245;28;20063;-84
2022/12/02 03:30:40;;;;;;;57.75;33.10;;;;;;;1.63;99.76;102208.38;10482647;28;20055;-85
2022/12/02 03:35:41;;;;;;;54.03;31.55;;;;;;;1.66;100.00;102204.44;10487756;28;20049;-85
2022/12/02 03:40:41;;;;;;;52.38;34.95;;;;;;;1.64;100.00;102211.09;10464747;28;20790;-85
2022/12/02 03:45:42;;;;;;;56.95;32.75;;;;;;;1.72;100.00;102201.59;10445311;28;20051;-85
2022/12/02 03:50:42;;;;;;;62.22;34.05;;;;;;;1.60;100.00;102191.81;10458491;28;20044;-85
2022/12/02 03:55:43;;;;;;;55.83;31.50;;;;;;;1.58;100.00;102210.44;10454213;28;20127;-84
2022/12/02 04:00:43;;;;;;;53.97;31.20;;;;;;;1.56;100.00;102192.25;10443093;28;20539;-85
2022/12/02 04:05:44;;;;;;;62.72;32.78;;;;;;;1.54;100.00;102188.59;10476489;28;20052;-85
2022/12/02 04:10:44;;;;;;;47.08;31.15;;;;;;;1.53;100.00;102191.00;10485552;28;20032;-85
2022/12/02 04:15:45;;;;;;;57.78;30.55;;;;;;;1.60;100.00;102191.81;10483906;28;20161;-85
2022/12/02 04:20:45;;;;;;;59.60;34.28;;;;;;;1.55;100.00;102168.84;10443348;28;20543;-85
2022/12/02 04:25:46;;;;;;;53.22;34.50;;;;;;;1.52;100.00;102164.28;10444152;28;20131;-85
2022/12/02 04:30:46;;;;;;;56.05;31.27;;;;;;;1.44;100.00;102153.16;10462770;28;20052;-85
2022/12/02 04:35:47;;;;;;;56.05;32.90;;;;;;;1.49;100.00;102163.03;10483593;28;20388;-85
2022/12/02 04:40:47;;;;;;;58.33;34.25;;;;;;;1.46;100.00;102161.97;10462156;28;20107;-85
2022/12/02 04:45:48;;;;;;;57.60;32.35;;;;;;;1.56;100.00;102157.75;10424134;28;20033;-86
2022/12/02 04:50:48;;;;;;;58.60;31.02;;;;;;;1.44;100.00;102157.41;10463164;28;20454;-85
2022/12/02 04:55:48;;;;;;;67.72;36.42;;;;;;;1.52;100.00;102163.34;10468665;28;20051;-83
2022/12/02 05:00:49;;;;;;;59.08;33.92;;;;;;;1.57;100.00;102163.09;10454624;28;20078;-85
2022/12/02 05:05:50;;;;;;;65.60;37.40;;;;;;;1.66;100.00;102152.81;10479543;28;20041;-86
2022/12/02 05:10:51;;;;;;;58.72;33.80;;;;;;;1.65;100.00;102147.50;10453117;28;20040;-85
2022/12/02 05:15:52;;;;;;;58.00;34.53;;;;;;;1.53;100.00;102140.31;10463595;28;20048;-85
2022/12/02 05:20:52;;;;;;;61.00;38.15;;;;;;;1.54;100.00;102136.03;10479788;28;20115;-86
2022/12/02 05:25:53;;;;;;;55.50;32.22;;;;;;;1.64;100.00;102133.66;10447384;28;20106;-85
2022/12/02 05:30:53;;;;;;;63.47;29.50;;;;;;;1.65;100.00;102126.84;10438101;28;20045;-82
2022/12/02 05:35:54;;;;;;;53.50;33.38;;;;;;;1.71;100.00;102137.81;10442696;28;20445;-87
2022/12/02 05:40:55;;;;;;;55.83;33.27;;;;;;;1.71;100.00;102135.22;10444058;28;20036;-89
2022/12/02 05:45:56;;;;;;;69.20;31.88;;;;;;;1.64;100.00;102128.50;10444474;28;20396;-83
2022/12/02 05:50:56;;;;;;;65.40;34.65;;;;;;;1.60;100.00;102121.19;10434624;28;20059;-85
2022/12/02 05:55:57;;;;;;;63.88;35.05;;;;;;;1.66;100.00;102128.69;10474983;28;20494;-86
2022/12/02 06:00:58;;;;;;;54.05;33.33;;;;;;;1.57;100.00;102111.50;10438409;28;21687;-84
2022/12/02 06:05:58;;;;;;;56.85;34.45;;;;;;;1.56;100.00;102122.56;10426834;28;20036;-87
2022/12/02 06:11:00;;;;;;;60.20;34.55;;;;;;;1.61;100.00;102123.97;10454263;28;20132;-85
2022/12/02 06:16:02;;;;;;;60.78;29.63;;;;;;;1.65;100.00;102126.84;10458858;28;20055;-85
2022/12/02 06:21:03;;;;;;;63.20;28.98;;;;;;;1.66;100.00;102127.00;10429895;28;20133;-85
2022/12/02 06:26:04;;;;;;;54.63;31.05;;;;;;;1.60;100.00;102129.88;10476828;28;20507;-85
2022/12/02 06:31:27;;;;;;;53.70;30.45;;;;;;;1.58;100.00;102120.13;10464188;28;20037;-83
2022/12/02 06:36:31;;;;;;;58.58;31.77;;;;;;;1.63;100.00;102126.69;10466153;28;20036;-86
2022/12/02 06:41:32;;;;;;;51.95;30.58;;;;;;;1.64;100.00;102132.78;10442420;28;20071;-87
2022/12/02 06:46:33;;;;;;;55.85;30.10;;;;;;;1.66;100.00;102131.25;10436311;28;20041;-85
2022/12/02 06:51:34;;;;;;;49.75;28.77;;;;;;;1.54;100.00;102125.72;10454143;28;20071;-85
2022/12/02 06:56:34;;;;;;;54.47;32.38;;;;;;;1.61;100.00;102123.97;10443975;28;20115;-85
2022/12/02 07:01:37;;;;;;;66.43;30.92;;;;;;;1.62;100.00;102119.69;10448686;28;20128;-84
2022/12/02 07:06:39;;;;;;;63.72;33.35;;;;;;;1.55;100.00;102118.16;10454482;28;20045;-84
2022/12/02 07:11:50;;;;;;;54.65;28.58;;;;;;;1.61;100.00;102113.63;10462713;28;20484;-86
2022/12/02 07:16:51;;;;;;;55.50;36.30;;;;;;;1.65;100.00;102121.69;10467216;28;20567;-88
2022/12/02 07:21:51;;;;;;;58.07;35.63;;;;;;;1.54;100.00;102129.22;10448355;28;20040;-86
2022/12/02 07:26:52;;;;;;;50.65;27.33;;;;;;;1.58;100.00;102133.03;10454843;28;20128;-86
2022/12/02 07:31:52;;;;;;;53.55;28.23;;;;;;;1.73;100.00;102126.88;10461832;28;20107;-86
2022/12/02 07:36:53;;;;;;;47.33;30.90;;;;;;;1.71;100.00;102124.91;10470540;28;20046;-85
2022/12/02 07:41:53;;;;;;;51.80;29.05;;;;;;;1.64;100.00;102128.50;10447668;28;20614;-85
2022/12/02 07:46:54;;;;;;;52.83;28.83;;;;;;;1.56;100.00;102127.72;10468937;28;20162;-85
2022/12/02 07:51:55;;;;;;;63.88;34.13;;;;;;;1.50;100.00;102126.16;10466767;28;20108;-85
2022/12/02 07:56:56;;;;;;;49.40;29.67;;;;;;;1.55;100.00;102131.06;10464801;28;20627;-85
2022/12/02 08:01:56;;;;;;;69.95;33.30;;;;;;;1.55;100.00;102128.47;10481018;28;20283;-88
2022/12/02 08:06:57;;;;;;;66.45;33.55;;;;;;;1.50;100.00;102133.91;10450374;28;20037;-89
2022/12/02 08:11:58;;;;;;;61.35;34.15;;;;;;;1.53;100.00;102131.63;10454638;28;20045;-87
2022/12/02 08:16:58;;;;;;;54.03;30.40;;;;;;;1.53;100.00;102137.72;10466527;28;20042;-90
2022/12/02 08:21:59;;;;;;;55.25;31.05;;;;;;;1.52;100.00;102134.97;10466897;28;20044;-86
2022/12/02 08:26:59;;;;;;;57.13;31.23;;;;;;;1.52;100.00;102128.16;10461404;28;20127;-83
2022/12/02 08:32:01;;;;;;;75.78;33.58;;;;;;;1.58;100.00;102128.78;10448563;28;20179;-86
2022/12/02 08:37:02;;;;;;;59.28;34.20;;;;;;;1.56;100.00;102127.72;10476556;28;20037;-88
2022/12/02 08:42:03;;;;;;;59.65;34.38;;;;;;;1.59;100.00;102142.59;10466926;28;20072;-86
2022/12/02 08:47:04;;;;;;;57.47;33.28;;;;;;;1.58;100.00;102122.72;10478116;28;20127;-85
2022/12/02 08:52:07;;;;;;;61.13;31.52;;;;;;;1.59;100.00;102128.03;10477485;28;20044;-79
2022/12/02 08:57:07;;;;;;;58.70;31.02;;;;;;;1.63;100.00;102129.25;10478245;28;20119;-81
2022/12/02 09:02:08;;;;;;;61.78;34.78;;;;;;;1.62;100.00;102132.59;10454008;28;20477;-86
2022/12/02 09:07:09;;;;;;;68.72;33.03;;;;;;;1.57;100.00;102131.19;10436837;28;20053;-86
2022/12/02 09:12:09;;;;;;;58.53;25.98;;;;;;;1.60;100.00;102137.63;10458688;28;20036;-86
2022/12/02 09:17:10;;;;;;;56.97;27.90;;;;;;;1.60;100.00;102126.34;10462992;28;20119;-87
2022/12/02 09:22:10;;;;;;;51.28;26.85;;;;;;;1.55;100.00;102127.56;10437816;28;20052;-87
2022/12/02 09:27:11;;;;;;;55.28;27.00;;;;;;;1.60;100.00;102127.28;10450154;28;20723;-91
2022/12/02 09:32:11;;;;;;;48.65;26.98;;;;;;;1.64;100.00;102123.34;10476684;28;20472;-81
2022/12/02 09:37:12;;;;;;;41.50;24.55;;;;;;;1.64;100.00;102113.03;10447120;28;24538;-85
2022/12/02 09:42:12;;;;;;;49.45;26.33;;;;;;;1.81;100.00;102119.00;10488326;28;20043;-87
2022/12/02 09:47:13;;;;;;;54.58;29.10;;;;;;;1.73;100.00;102110.50;10487945;28;20547;-86
2022/12/02 09:52:16;;;;;;;54.13;32.90;;;;;;;1.71;100.00;102104.25;10487538;28;20489;-85
2022/12/02 09:57:17;;;;;;;69.55;34.80;;;;;;;1.77;100.00;102097.16;10472077;28;20043;-85
2022/12/02 10:02:39;;;;;;;62.22;31.08;;;;;;;1.82;100.00;102092.44;10471465;28;20037;-85
2022/12/02 10:07:39;;;;;;;60.03;33.20;;;;;;;1.82;100.00;102093.38;10460464;28;20055;-86
2022/12/02 10:12:40;;;;;;;62.28;32.40;;;;;;;1.79;100.00;102090.47;10458522;28;20045;-86
2022/12/02 10:17:41;;;;;;;73.50;37.20;;;;;;;1.89;100.00;102082.91;10454774;28;20461;-85
2022/12/02 10:23:03;;;;;;;62.63;32.93;;;;;;;1.95;100.00;102092.03;10448561;28;20044;-83
2022/12/02 10:28:04;;;;;;;85.45;42.28;;;;;;;1.89;100.00;102095.81;10457808;28;20299;-83
2022/12/02 10:33:05;;;;;;;76.70;35.60;;;;;;;1.94;100.00;102100.53;10446950;28;20048;-81
2022/12/02 10:38:31;;;;;;;68.18;36.53;;;;;;;1.93;100.00;102097.03;10483164;28;20037;-86
2022/12/02 10:43:32;;;;;;;67.75;35.78;;;;;;;2.02;100.00;102092.81;10474837;28;20098;-84
2022/12/02 10:48:36;;;;;;;88.60;46.00;;;;;;;1.96;100.00;102079.28;10466373;28;20128;-84
2022/12/02 10:53:36;;;;;;;64.30;36.33;;;;;;;1.96;100.00;102074.09;10460565;28;20039;-84
2022/12/02 10:58:37;;;;;;;72.78;38.20;;;;;;;2.00;100.00;102065.91;10446137;28;20126;-87
2022/12/02 11:03:38;;;;;;;82.22;39.03;;;;;;;2.01;100.00;102069.44;10449567;28;20057;-84
2022/12/02 11:08:41;;;;;;;64.55;37.08;;;;;;;2.16;100.00;102051.97;10464972;28;20041;-87
2022/12/02 11:13:48;;;;;;;95.30;50.08;;;;;;;2.16;100.00;102047.72;10456571;28;20499;-85
2022/12/02 11:18:49;;;;;;;70.90;36.83;;;;;;;2.19;100.00;102049.69;10456537;28;20401;-86
2022/12/02 11:24:30;;;;;;;59.63;32.78;;;;;;;2.20;100.00;102044.69;10440041;28;20068;-86
2022/12/02 11:30:03;;;;;;;72.50;37.33;;;;;;;2.22;100.00;102033.59;10442124;28;20067;-86
2022/12/02 11:35:06;;;;;;;53.25;33.05;;;;;;;2.20;100.00;102036.94;10470365;28;20048;-86
2022/12/02 11:40:10;;;;;;;67.78;32.47;;;;;;;2.27;100.00;102027.22;10453466;28;20103;-86
2022/12/02 11:45:16;;;;;;;66.55;35.03;;;;;;;2.31;100.00;102019.91;10425385;28;20375;-88
2022/12/02 11:50:26;;;;;;;58.17;33.92;;;;;;;2.24;100.00;102026.91;10400433;28;20124;-87
2022/12/02 11:55:39;;;;;;;66.38;37.00;;;;;;;2.28;100.00;102019.59;10404902;28;20046;-86
2022/12/02 12:00:44;;;;;;;65.55;33.90;;;;;;;2.26;100.00;102020.22;10418566;28;20043;-85
2022/12/02 12:06:04;;;;;;;67.03;32.20;;;;;;;2.25;100.00;102014.13;10438527;28;20469;-86
2022/12/02 12:11:30;;;;;;;59.63;36.33;;;;;;;2.28;100.00;102019.59;10446295;28;20119;-87
2022/12/02 12:16:33;;;;;;;61.92;32.40;;;;;;;2.26;100.00;102013.38;10441109;28;20035;-88
2022/12/02 12:21:34;;;;;;;62.78;32.75;;;;;;;2.22;100.00;102006.09;10441033;28;20037;-86
2022/12/02 12:26:34;;;;;;;59.58;35.63;;;;;;;2.23;100.00;102000.16;10452889;28;20044;-84
2022/12/02 12:31:35;;;;;;;65.13;32.00;;;;;;;2.24;100.00;101998.50;10479239;28;20040;-82
2022/12/02 12:36:36;;;;;;;55.92;32.20;;;;;;;2.32;100.00;101992.41;10461248;28;20045;-83
2022/12/02 12:41:36;;;;;;;43.47;31.08;;;;;;;2.40;100.00;101993.16;10450157;28;20064;-83
2022/12/02 12:46:37;;;;;;;56.25;30.70;;;;;;;2.30;100.00;101983.59;10448508;28;20469;-79
2022/12/02 12:51:37;;;;;;;55.17;32.88;;;;;;;2.33;100.00;101984.81;10454391;28;20033;-83
2022/12/02 12:56:38;;;;;;;42.90;27.42;;;;;;;2.28;100.00;101986.03;10451332;28;20135;-87
2022/12/02 13:01:39;;;;;;;51.80;26.35;;;;;;;2.31;100.00;101988.91;10441239;28;20041;-88
2022/12/02 13:06:39;;;;;;;50.65;28.20;;;;;;;2.25;100.00;101983.13;10451981;28;20424;-88
2022/12/02 13:11:41;;;;;;;49.00;30.08;;;;;;;2.25;99.75;101982.25;10482599;28;20506;-86
2022/12/02 13:16:41;;;;;;;34.60;20.05;;;;;;;2.09;97.55;101982.38;10478345;28;20120;-87
2022/12/02 13:21:42;;;;;;;49.65;27.35;;;;;;;2.00;97.20;101977.22;10444498;28;20037;-87
2022/12/02 13:26:42;;;;;;;52.22;28.85;;;;;;;1.94;98.40;101972.34;10443246;28;20051;-84
2022/12/02 13:31:43;;;;;;;58.53;29.98;;;;;;;1.93;98.59;101970.50;10462463;28;20048;-85
2022/12/02 13:36:43;;;;;;;47.17;31.10;;;;;;;1.87;97.81;101962.16;10469674;28;20360;-83
2022/12/02 13:41:44;;;;;;;44.67;28.02;;;;;;;1.81;98.25;101977.03;10475347;28;20512;-86
2022/12/02 13:46:44;;;;;;;52.97;30.35;;;;;;;1.76;99.23;101976.56;10458886;28;20063;-88
2022/12/02 13:51:45;;;;;;;53.97;29.58;;;;;;;1.84;99.17;101978.25;10449919;28;20041;-87
2022/12/02 13:56:45;;;;;;;50.95;31.58;;;;;;;1.81;98.34;101977.03;10469933;28;20072;-87
2022/12/02 14:01:46;;;;;;;46.00;30.15;;;;;;;1.73;98.83;101981.44;10446478;28;20043;-88
2022/12/02 14:06:46;;;;;;;46.13;30.83;;;;;;;1.73;98.13;101976.25;10454285;28;20109;-92
2022/12/02 14:11:47;;;;;;;51.58;31.70;;;;;;;1.78;98.03;101977.66;10430523;28;20041;-89
2022/12/02 14:16:47;;;;;;;52.38;33.22;;;;;;;1.77;98.84;101980.97;10458751;28;20037;-89
2022/12/02 14:21:48;;;;;;;50.58;33.35;;;;;;;1.74;98.90;101980.69;10452020;28;20057;-89
2022/12/02 14:26:48;;;;;;;55.35;34.40;;;;;;;1.70;97.71;101988.88;10452169;28;20461;-90
2022/12/02 14:31:49;;;;;;;57.90;33.30;;;;;;;1.73;98.67;101990.06;10447910;28;20045;-91
2022/12/02 14:36:49;;;;;;;52.30;32.90;;;;;;;1.59;98.65;101983.53;10448028;28;20127;-89
2022/12/02 14:41:50;;;;;;;62.33;36.53;;;;;;;1.56;98.49;101985.78;10447401;28;20044;-89
2022/12/02 14:46:50;;;;;;;65.57;33.22;;;;;;;1.56;98.87;101992.59;10428106;28;20056;-90
2022/12/02 14:51:51;;;;;;;52.90;34.75;;;;;;;1.59;97.58;101995.50;10459999;28;20136;-88
2022/12/02 14:56:51;;;;;;;58.17;35.20;;;;;;;1.54;96.31;101988.97;10428372;28;20068;-87
2022/12/02 15:01:52;;;;;;;52.92;33.28;;;;;;;1.53;96.10;101994.88;10410242;28;20041;-89
2022/12/02 15:06:52;;;;;;;59.22;32.78;;;;;;;1.48;96.74;101999.59;10404324;28;20119;-88
2022/12/02 15:11:53;;;;;;;59.42;36.75;;;;;;;1.49;96.96;102003.97;10431514;28;20033;-88
2022/12/02 15:16:53;;;;;;;62.10;35.05;;;;;;;1.46;96.14;101993.34;10437619;28;20037;-88
2022/12/02 15:21:54;;;;;;;67.82;36.72;;;;;;;1.45;96.98;101994.09;10430116;28;20040;-91
2022/12/02 15:26:54;;;;;;;59.50;38.95;;;;;;;1.45;97.72;102007.91;10432810;28;20099;-90
2022/12/02 15:31:55;;;;;;;61.92;36.72;;;;;;;1.42;96.20;101997.25;10459407;28;20048;-91
2022/12/02 15:36:55;;;;;;;56.03;35.80;;;;;;;1.42;95.47;102007.59;10469407;28;20454;-92
2022/12/02 15:41:56;;;;;;;64.40;36.92;;;;;;;1.38;97.05;102009.72;10456045;28;20041;-88
2022/12/02 15:46:57;;;;;;;65.93;41.40;;;;;;;1.29;96.57;102013.16;10456941;28;20052;-84
2022/12/02 15:51:57;;;;;;;65.65;36.70;;;;;;;1.29;96.32;102013.16;10460326;28;20060;-89
2022/12/02 15:56:58;;;;;;;68.03;40.00;;;;;;;1.25;96.84;102011.03;10467084;28;20056;-89
2022/12/02 16:01:58;;;;;;;65.68;38.75;;;;;;;1.30;97.38;102014.06;10437523;28;20061;-91
2022/12/02 16:06:59;;;;;;;68.35;37.70;;;;;;;1.24;97.14;102006.63;10432988;28;20492;-87
2022/12/02 16:11:59;;;;;;;68.00;37.42;;;;;;;1.25;96.78;102023.00;10450547;28;20049;-89
2022/12/02 16:17:00;;;;;;;62.40;35.20;;;;;;;1.24;96.68;102016.00;10443959;28;20060;-88
2022/12/02 16:22:00;;;;;;;63.20;36.13;;;;;;;1.29;97.00;102013.16;10460247;28;20062;-88
2022/12/02 16:27:01;;;;;;;66.88;39.15;;;;;;;1.28;95.06;102020.72;10462003;28;20056;-88
2022/12/02 16:32:01;;;;;;;63.72;38.97;;;;;;;1.22;94.82;102017.50;10479307;28;20120;-88
2022/12/02 16:37:02;;;;;;;63.35;38.47;;;;;;;1.16;95.34;102017.81;10442459;28;20029;-90
2022/12/02 16:42:02;;;;;;;70.45;41.50;;;;;;;1.09;96.43;102023.09;10444825;28;20100;-88
2022/12/02 16:47:03;;;;;;;62.97;39.05;;;;;;;1.15;96.17;102019.47;10484011;28;20082;-89
2022/12/02 16:52:04;;;;;;;54.75;34.03;;;;;;;1.08;96.27;102026.41;10458955;28;20505;-89
2022/12/02 16:57:04;;;;;;;52.40;35.42;;;;;;;1.11;96.55;102029.31;10447679;28;20042;-91
2022/12/02 17:02:05;;;;;;;62.38;40.75;;;;;;;1.12;96.26;102024.28;10467491;28;20044;-88
2022/12/02 17:07:05;;;;;;;59.30;35.42;;;;;;;1.11;96.81;102042.19;10468259;28;20538;-87
2022/12/02 17:12:06;;;;;;;54.40;33.75;;;;;;;1.09;95.85;102039.44;10457015;28;20064;-88
2022/12/02 17:17:06;;;;;;;57.95;36.53;;;;;;;1.10;96.38;102040.38;10446963;28;20037;-88
2022/12/02 17:22:09;;;;;;;58.78;33.95;;;;;;;1.10;97.04;102040.38;10457109;28;20125;-86
2022/12/02 17:27:09;;;;;;;52.38;32.78;;;;;;;1.04;97.38;102042.31;10411767;28;20481;-82
2022/12/02 17:32:10;;;;;;;56.60;34.10;;;;;;;1.08;97.14;102045.34;10442540;28;20128;-83
2022/12/02 17:37:10;;;;;;;53.58;34.42;;;;;;;1.07;96.93;102038.38;10438947;28;20067;-86
2022/12/02 17:42:11;;;;;;;53.00;30.60;;;;;;;1.11;96.18;102043.09;10418380;28;20182;-83
2022/12/02 17:47:12;;;;;;;50.53;28.75;;;;;;;1.06;96.30;102049.44;10428059;28;20047;-83
2022/12/02 17:52:20;;;;;;;47.78;32.80;;;;;;;1.00;96.23;102043.63;10436318;28;20119;-85
2022/12/02 17:57:24;;;;;;;44.35;32.17;;;;;;;1.06;97.02;102045.97;10452385;28;20428;-82
2022/12/02 18:02:25;;;;;;;43.90;26.08;;;;;;;1.02;96.76;102050.81;10420208;28;20044;-83
2022/12/02 18:07:25;;;;;;;54.25;29.65;;;;;;;1.08;96.02;102049.63;10411313;28;20037;-84
2022/12/02 18:12:26;;;;;;;53.80;31.20;;;;;;;1.07;95.67;102050.38;10430536;28;20053;-85
2022/12/02 18:17:26;;;;;;;46.65;28.73;;;;;;;1.01;95.84;102055.78;10428765;28;20140;-85
2022/12/02 18:22:30;;;;;;;47.53;29.40;;;;;;;1.00;97.36;102060.03;10450281;28;20131;-85
2022/12/02 18:27:31;;;;;;;48.03;30.95;;;;;;;1.00;96.63;102064.25;10470310;28;20492;-86
2022/12/02 18:32:32;;;;;;;49.53;29.05;;;;;;;0.98;96.36;102058.97;10443492;28;20477;-78
2022/12/02 18:37:32;;;;;;;51.17;31.95;;;;;;;1.01;95.24;102056.72;10447853;28;20145;-78
2022/12/02 18:42:34;;;;;;;56.60;34.20;;;;;;;0.98;94.86;102056.38;10484245;28;20585;-79
2022/12/02 18:47:35;;;;;;;44.15;29.92;;;;;;;0.96;95.80;102039.84;10475107;28;20374;-78
2022/12/02 18:52:35;;;;;;;46.38;29.52;;;;;;;0.91;95.10;102043.59;10486297;28;20123;-81
2022/12/02 18:57:36;;;;;;;42.72;29.00;;;;;;;0.96;94.75;102047.56;10483543;28;20050;-79
2022/12/02 19:02:37;;;;;;;46.28;26.67;;;;;;;0.93;94.72;102046.31;10469928;28;20115;-80
2022/12/02 19:07:37;;;;;;;50.67;32.88;;;;;;;0.96;94.49;102045.00;10457863;28;20136;-80
2022/12/02 19:12:38;;;;;;;55.10;32.92;;;;;;;0.94;94.67;102043.00;10430711;28;20048;-80
2022/12/02 19:17:39;;;;;;;50.78;30.15;;;;;;;0.94;95.04;102043.00;10441982;28;20544;-80
2022/12/02 19:22:39;;;;;;;43.55;29.45;;;;;;;0.87;94.14;102049.19;10442790;28;20040;-80
2022/12/02 19:27:40;;;;;;;44.67;30.05;;;;;;;0.84;94.95;102039.44;10434254;28;20445;-83
2022/12/02 19:32:40;;;;;;;43.53;27.55;;;;;;;0.85;95.15;102042.97;10436103;28;20095;-87
2022/12/02 19:37:41;;;;;;;51.47;29.02;;;;;;;0.82;95.58;102035.78;10433896;28;20044;-87
2022/12/02 19:42:42;;;;;;;48.03;27.83;;;;;;;0.70;94.96;102039.66;10426274;28;20033;-90
2022/12/02 19:47:42;;;;;;;46.38;26.90;;;;;;;0.78;94.29;102043.06;10441137;28;20120;-91
2022/12/02 19:52:43;;;;;;;39.53;25.15;;;;;;;0.77;94.28;102043.81;10387215;28;20061;-92
2022/12/02 19:57:43;;;;;;;40.97;23.10;;;;;;;0.75;93.76;102041.06;10411153;28;20552;-89
2022/12/02 20:02:44;;;;;;;43.53;25.30;;;;;;;0.68;94.38;102046.31;10489275;28;20554;-92
2022/12/02 20:07:44;;;;;;;37.55;24.60;;;;;;;0.65;94.65;102048.56;10426174;28;20042;-88
2022/12/02 20:12:45;;;;;;;33.40;20.85;;;;;;;0.65;95.01;102046.91;10444414;28;20131;-90
2022/12/02 20:17:46;;;;;;;33.20;21.67;;;;;;;0.64;95.16;102044.16;10408792;28;20041;-90
2022/12/02 20:22:46;;;;;;;39.60;24.38;;;;;;;0.55;95.26;102049.25;10410560;28;20523;-87
2022/12/02 20:27:47;;;;;;;37.17;24.60;;;;;;;0.50;96.83;102048.75;10445681;28;20036;-87
2022/12/02 20:32:47;;;;;;;44.15;25.65;;;;;;;0.49;96.54;102048.59;10459073;28;20128;-89
2022/12/02 20:37:48;;;;;;;38.35;25.50;;;;;;;0.43;97.39;102049.78;10453739;28;20049;-89
2022/12/02 20:42:49;;;;;;;41.30;23.03;;;;;;;0.37;98.86;102054.25;10458232;28;20460;-89
2022/12/02 20:47:49;;;;;;;38.08;25.27;;;;;;;0.25;100.00;102052.94;10456804;28;20045;-90
2022/12/02 20:52:50;;;;;;;41.13;23.20;;;;;;;0.22;100.00;102047.47;10458014;28;20484;-84
2022/12/02 20:57:51;;;;;;;38.97;22.13;;;;;;;0.14;100.00;102049.19;10455842;28;20412;-89
2022/12/02 21:02:51;;;;;;;42.58;23.48;;;;;;;0.15;100.00;102053.59;10463053;28;20428;-88
2022/12/02 21:07:52;;;;;;;46.05;25.92;;;;;;;0.10;100.00;102053.09;10443094;28;20095;-91
2022/12/02 21:12:53;;;;;;;34.10;22.60;;;;;;;0.08;100.00;102048.50;10453274;28;20048;-89
2022/12/02 21:17:53;;;;;;;35.95;25.92;;;;;;;0.06;100.00;102052.59;10467898;28;20040;-91
2022/12/02 21:22:54;;;;;;;47.67;27.50;;;;;;;0.06;100.00;102044.88;10471441;28;20131;-91
2022/12/02 21:27:55;;;;;;;31.83;22.67;;;;;;;0.12;100.00;102051.59;10444008;28;20036;-90
2022/12/02 21:32:55;;;;;;;36.50;22.70;;;;;;;0.18;100.00;102042.72;10473920;28;20037;-90
2022/12/02 21:37:57;;;;;;;37.45;24.30;;;;;;;0.16;100.00;102042.53;10469943;28;20404;-90
2022/12/02 21:42:58;;;;;;;36.83;23.52;;;;;;;0.15;100.00;102038.13;10482903;28;20115;-91
2022/12/02 21:47:58;;;;;;;35.40;22.52;;;;;;;0.07;100.00;102036.41;10486150;28;20037;-91
2022/12/02 21:52:59;;;;;;;39.00;25.50;;;;;;;0.08;100.00;102031.44;10493677;28;20075;-89
2022/12/02 21:57:59;;;;;;;35.90;22.88;;;;;;;0.13;100.00;102039.63;10488449;28;20124;-90
2022/12/02 22:03:01;;;;;;;36.67;22.65;;;;;;;0.07;100.00;102038.97;10496664;28;20128;-91
2022/12/02 22:08:02;;;;;;;36.45;23.83;;;;;;;0.01;100.00;102043.44;10470011;28;20056;-91
2022/12/02 22:13:02;;;;;;;37.08;23.27;;;;;;;0.06;100.00;102045.78;10462247;28;20095;-91
2022/12/02 22:18:03;;;;;;;36.88;22.45;;;;;;;0.03;100.00;102042.88;10471203;28;20119;-90
2022/12/02 22:23:03;;;;;;;41.88;24.98;;;;;;;0.08;100.00;102049.44;10441839;28;20040;-90
2022/12/02 22:28:04;;;;;;;31.35;22.17;;;;;;;0.08;100.00;102051.09;10457673;28;20437;-90
2022/12/02 22:33:04;;;;;;;37.92;23.20;;;;;;;0.14;100.00;102050.13;10479180;28;20043;-87
2022/12/02 22:38:05;;;;;;;36.70;22.58;;;;;;;0.11;100.00;102048.84;10476767;28;20473;-88
2022/12/02 22:43:05;;;;;;;31.88;21.25;;;;;;;0.09;100.00;102045.19;10419127;28;20128;-91
2022/12/02 22:48:06;;;;;;;38.80;22.35;;;;;;;0.08;100.00;102049.44;10471588;28;20155;-91